Time;durP1;ratioP1;P1;durP2;ratioP2;P2;SDS_P1;SDS_P2;PMS_P1;PMS_P2;Temp;Humidity;BMP_temperature;BMP_pressure;BME280_temperature;BME280_humidity;BME280_pressure;Samples;Min_cycle;Max_cycle;Signal;HPM_P1;HPM_P2
2023/04/06 00:00:17;;;;;;;;;;;;;;;14.03;nan;98707.88;4942502;29;19922;-85
2023/04/06 00:03:01;;;;;;;;;;;;;;;14.10;nan;98705.94;4955481;29;19970;-85
2023/04/06 00:05:46;;;;;;;;;;;;;;;14.13;nan;98704.69;4956042;29;19921;-85
2023/04/06 00:08:30;;;;;;;;;;;;;;;14.14;nan;98707.06;4941648;29;20328;-84
2023/04/06 00:11:16;;;;;;;;;;;;;;;14.06;nan;98696.84;4942015;29;19929;-85
2023/04/06 00:14:00;;;;;;;;;;;;;;;14.13;nan;98702.81;4942383;29;19922;-84
2023/04/06 00:16:44;;;;;;;;;;;;;;;14.03;nan;98692.03;4941491;29;19921;-84
2023/04/06 00:19:29;;;;;;;;;;;;;;;13.77;nan;98691.38;4942416;29;19921;-84
2023/04/06 00:22:13;;;;;;;;;;;;;;;13.64;nan;98683.66;4942172;29;19925;-86
2023/04/06 00:24:57;;;;;;;;;;;;;;;13.56;nan;98680.31;4956448;29;19920;-86
2023/04/06 00:27:41;;;;;;;;;;;;;;;13.63;nan;98677.56;4942086;29;19961;-86
2023/04/06 00:30:25;;;;;;;;;;;;;;;13.67;nan;98676.09;4953466;29;19973;-84
2023/04/06 00:33:09;;;;;;;;;;;;;;;13.54;nan;98677.06;4942150;29;19920;-84
2023/04/06 00:35:53;;;;;;;;;;;;;;;13.63;nan;98664.38;4941719;29;19917;-84
2023/04/06 00:38:37;;;;;;;;;;;;;;;13.81;nan;98665.34;4942204;29;19965;-83
2023/04/06 00:41:21;;;;;;;;;;;;;;;14.00;nan;98674.03;4941724;29;19969;-84
2023/04/06 00:44:05;;;;;;;;;;;;;;;13.99;nan;98667.91;4941214;29;19925;-84
2023/04/06 00:46:49;;;;;;;;;;;;;;;13.98;nan;98670.81;4941514;29;19922;-85
2023/04/06 00:49:33;;;;;;;;;;;;;;;13.98;nan;98666.31;4940539;29;20005;-84
2023/04/06 00:52:18;;;;;;;;;;;;;;;14.09;nan;98656.81;4941686;29;20398;-85
2023/04/06 00:55:02;;;;;;;;;;;;;;;13.85;nan;98655.94;4941626;29;19925;-85
2023/04/06 00:57:47;;;;;;;;;;;;;;;14.19;nan;98652.81;4938502;29;19956;-85
2023/04/06 01:00:31;;;;;;;;;;;;;;;14.02;nan;98652.66;4941193;29;19969;-85
2023/04/06 01:03:15;;;;;;;;;;;;;;;13.91;nan;98654.25;4939298;29;19946;-84
2023/04/06 01:05:59;;;;;;;;;;;;;;;14.03;nan;98644.53;4941272;29;19925;-86
2023/04/06 01:08:43;;;;;;;;;;;;;;;14.05;nan;98642.47;4954666;29;20046;-85
2023/04/06 01:11:27;;;;;;;;;;;;;;;13.75;nan;98645.94;4940719;29;20001;-85
2023/04/06 01:14:11;;;;;;;;;;;;;;;13.49;nan;98636.59;4953630;29;19942;-85
2023/04/06 01:16:57;;;;;;;;;;;;;;;13.39;nan;98631.81;4941057;29;20316;-84
2023/04/06 01:19:42;;;;;;;;;;;;;;;12.86;nan;98636.69;4941318;29;19921;-83
2023/04/06 01:22:26;;;;;;;;;;;;;;;13.32;nan;98631.91;4940719;29;20450;-84
2023/04/06 01:25:10;;;;;;;;;;;;;;;13.39;nan;98621.28;4939496;29;19921;-85
2023/04/06 01:27:54;;;;;;;;;;;;;;;13.69;nan;98626.56;4941318;29;19985;-84
2023/04/06 01:30:38;;;;;;;;;;;;;;;13.74;nan;98620.59;4954118;29;19965;-86
2023/04/06 01:33:22;;;;;;;;;;;;;;;13.99;nan;98623.06;4953478;29;19921;-84
2023/04/06 01:36:06;;;;;;;;;;;;;;;14.17;nan;98615.31;4939341;29;20281;-84
2023/04/06 01:38:50;;;;;;;;;;;;;;;14.20;nan;98606.91;4940735;29;19968;-84
2023/04/06 01:41:34;;;;;;;;;;;;;;;14.24;nan;98606.22;4939095;29;19922;-84
2023/04/06 01:44:18;;;;;;;;;;;;;;;14.24;nan;98594.88;4940646;29;19920;-84
2023/04/06 01:47:02;;;;;;;;;;;;;;;14.28;nan;98591.53;4938713;29;19921;-85
2023/04/06 01:49:46;;;;;;;;;;;;;;;14.16;nan;98592.59;4939496;29;19920;-85
2023/04/06 01:52:30;;;;;;;;;;;;;;;14.16;nan;98588.09;4939991;29;20376;-85
2023/04/06 01:55:14;;;;;;;;;;;;;;;14.17;nan;98586.25;4939598;29;19921;-86
2023/04/06 01:57:58;;;;;;;;;;;;;;;14.17;nan;98583.63;4939783;29;19952;-84
2023/04/06 02:00:42;;;;;;;;;;;;;;;14.10;nan;98589.81;4954244;28;20345;-84
2023/04/06 02:03:26;;;;;;;;;;;;;;;14.18;nan;98582.59;4938520;29;19965;-86
2023/04/06 02:06:10;;;;;;;;;;;;;;;14.21;nan;98582.13;4940237;29;19921;-84
2023/04/06 02:08:54;;;;;;;;;;;;;;;14.21;nan;98579.50;4940098;29;19921;-84
2023/04/06 02:11:38;;;;;;;;;;;;;;;14.10;nan;98573.19;4954287;29;19989;-85
2023/04/06 02:14:24;;;;;;;;;;;;;;;14.13;nan;98567.44;4939942;29;20283;-84
2023/04/06 02:17:08;;;;;;;;;;;;;;;14.02;nan;98561.13;4939625;29;20383;-85
2023/04/06 02:19:52;;;;;;;;;;;;;;;14.04;nan;98553.78;4940084;29;19921;-86
2023/04/06 02:22:36;;;;;;;;;;;;;;;14.10;nan;98552.84;4954108;29;20873;-85
2023/04/06 02:25:21;;;;;;;;;;;;;;;14.14;nan;98550.56;4937934;29;19921;-85
2023/04/06 02:28:05;;;;;;;;;;;;;;;14.16;nan;98534.50;4952711;29;19964;-84
2023/04/06 02:30:49;;;;;;;;;;;;;;;14.13;nan;98531.28;4938637;29;20463;-84
2023/04/06 02:33:33;;;;;;;;;;;;;;;14.09;nan;98535.41;4939619;29;20403;-83
2023/04/06 02:36:17;;;;;;;;;;;;;;;14.04;nan;98537.94;4938782;29;19973;-84
2023/04/06 02:39:01;;;;;;;;;;;;;;;13.84;nan;98528.53;4954154;29;19980;-85
2023/04/06 02:41:45;;;;;;;;;;;;;;;13.87;nan;98521.19;4938474;29;19969;-84
2023/04/06 02:44:29;;;;;;;;;;;;;;;13.98;nan;98530.97;4939232;29;19977;-85
2023/04/06 02:47:13;;;;;;;;;;;;;;;13.98;nan;98528.31;4939233;29;20284;-84
2023/04/06 02:49:57;;;;;;;;;;;;;;;13.99;nan;98514.88;4938976;29;19933;-85
2023/04/06 02:52:41;;;;;;;;;;;;;;;13.65;nan;98524.38;4939024;29;19928;-84
2023/04/06 02:55:25;;;;;;;;;;;;;;;13.40;nan;98527.97;4952026;29;19941;-85
2023/04/06 02:58:09;;;;;;;;;;;;;;;13.72;nan;98525.06;4939382;29;19929;-84
2023/04/06 03:00:53;;;;;;;;;;;;;;;13.42;nan;98534.63;4939185;29;20020;-85
2023/04/06 03:03:37;;;;;;;;;;;;;;;13.25;nan;98531.81;4952536;29;20340;-84
2023/04/06 03:06:21;;;;;;;;;;;;;;;13.50;nan;98533.53;4939116;29;19928;-85
2023/04/06 03:09:05;;;;;;;;;;;;;;;13.47;nan;98531.34;4938510;29;19929;-84
2023/04/06 03:11:49;;;;;;;;;;;;;;;13.81;nan;98534.28;4937987;29;20340;-84
2023/04/06 03:14:33;;;;;;;;;;;;;;;13.69;nan;98539.53;4938469;29;19929;-85
2023/04/06 03:17:17;;;;;;;;;;;;;;;13.73;nan;98525.88;4938320;29;20312;-85
2023/04/06 03:20:01;;;;;;;;;;;;;;;13.76;nan;98528.88;4938583;29;20455;-85
2023/04/06 03:22:45;;;;;;;;;;;;;;;13.80;nan;98524.75;4938491;29;20301;-85
2023/04/06 03:25:32;;;;;;;;;;;;;;;13.90;nan;98512.81;4938256;29;20432;-84
2023/04/06 03:28:16;;;;;;;;;;;;;;;13.86;nan;98507.22;4938559;29;19970;-84
2023/04/06 03:31:00;;;;;;;;;;;;;;;13.79;nan;98507.31;4936171;29;19926;-85
2023/04/06 03:33:44;;;;;;;;;;;;;;;13.98;nan;98501.94;4936922;29;19921;-84
2023/04/06 03:36:30;;;;;;;;;;;;;;;13.82;nan;98503.41;4949909;29;19921;-84
2023/04/06 03:39:14;;;;;;;;;;;;;;;13.82;nan;98504.22;4936186;29;20502;-84
2023/04/06 03:41:58;;;;;;;;;;;;;;;13.57;nan;98496.50;4938777;29;20419;-84
2023/04/06 03:44:41;;;;;;;;;;;;;;;13.35;nan;98496.19;4937727;29;19933;-83
2023/04/06 03:47:25;;;;;;;;;;;;;;;13.38;nan;98498.41;4936167;29;19917;-83
2023/04/06 03:50:10;;;;;;;;;;;;;;;13.31;nan;98497.69;4937236;29;19974;-83
2023/04/06 03:52:53;;;;;;;;;;;;;;;13.67;nan;98483.56;4936340;29;20313;-84
2023/04/06 03:55:37;;;;;;;;;;;;;;;13.34;nan;98486.69;4950839;29;19913;-83
2023/04/06 03:58:21;;;;;;;;;;;;;;;13.40;nan;98491.06;4950760;29;20280;-83
2023/04/06 04:01:05;;;;;;;;;;;;;;;13.65;nan;98490.09;4938379;29;19969;-83
2023/04/06 04:03:49;;;;;;;;;;;;;;;13.71;nan;98483.91;4935855;29;19926;-84
2023/04/06 04:06:36;;;;;;;;;;;;;;;13.62;nan;98480.00;4952998;29;19993;-83
2023/04/06 04:09:20;;;;;;;;;;;;;;;13.56;nan;98484.34;4937845;29;20508;-84
2023/04/06 04:12:03;;;;;;;;;;;;;;;13.74;nan;98486.06;4938561;29;19925;-84
2023/04/06 04:14:47;;;;;;;;;;;;;;;13.77;nan;98475.09;4938634;29;20384;-84
2023/04/06 04:17:32;;;;;;;;;;;;;;;13.88;nan;98475.31;4935472;29;19924;-85
2023/04/06 04:20:16;;;;;;;;;;;;;;;13.61;nan;98467.84;4937227;29;19921;-84
2023/04/06 04:23:00;;;;;;;;;;;;;;;13.73;nan;98468.66;4952958;28;19965;-85
2023/04/06 04:25:44;;;;;;;;;;;;;;;13.58;nan;98471.75;4942136;29;19922;-86
2023/04/06 04:28:28;;;;;;;;;;;;;;;13.36;nan;98474.06;4942129;29;20009;-85
2023/04/06 04:31:12;;;;;;;;;;;;;;;13.48;nan;98472.31;4940533;29;19985;-84
2023/04/06 04:33:57;;;;;;;;;;;;;;;13.40;nan;98469.97;4941897;29;19921;-83
2023/04/06 04:36:41;;;;;;;;;;;;;;;13.77;nan;98467.19;4940524;29;19920;-84
2023/04/06 04:39:25;;;;;;;;;;;;;;;13.71;nan;98462.81;4955574;29;20444;-85
2023/04/06 04:42:10;;;;;;;;;;;;;;;13.62;nan;98467.63;4941552;29;19937;-85
2023/04/06 04:44:54;;;;;;;;;;;;;;;13.57;nan;98470.97;4941145;29;21894;-83
2023/04/06 04:47:38;;;;;;;;;;;;;;;13.77;nan;98464.53;4940841;29;21751;-83
2023/04/06 04:50:22;;;;;;;;;;;;;;;13.68;nan;98464.09;4941238;29;19933;-83
2023/04/06 04:53:06;;;;;;;;;;;;;;;13.67;nan;98464.31;4939707;29;20345;-85
2023/04/06 04:55:51;;;;;;;;;;;;;;;13.66;nan;98468.78;4941298;29;19973;-86
2023/04/06 04:58:35;;;;;;;;;;;;;;;13.85;nan;98466.00;4941156;29;19921;-85
2023/04/06 05:01:19;;;;;;;;;;;;;;;14.04;nan;98465.88;4941279;29;19997;-84
2023/04/06 05:04:03;;;;;;;;;;;;;;;13.91;nan;98469.56;4939974;29;20395;-83
2023/04/06 05:06:47;;;;;;;;;;;;;;;13.51;nan;98471.06;4940943;29;19965;-83
2023/04/06 05:09:31;;;;;;;;;;;;;;;13.69;nan;98470.16;4940669;29;19941;-85
2023/04/06 05:12:15;;;;;;;;;;;;;;;13.84;nan;98467.84;4941182;29;20431;-85
2023/04/06 05:14:59;;;;;;;;;;;;;;;13.84;nan;98465.22;4940165;29;19961;-84
2023/04/06 05:17:43;;;;;;;;;;;;;;;14.16;nan;98465.91;4940550;29;19925;-85
2023/04/06 05:20:27;;;;;;;;;;;;;;;14.30;nan;98461.94;4940352;29;19922;-85
2023/04/06 05:23:11;;;;;;;;;;;;;;;14.21;nan;98463.34;4940660;29;20391;-85
2023/04/06 05:25:56;;;;;;;;;;;;;;;14.23;nan;98469.19;4940620;29;19941;-85
2023/04/06 05:28:42;;;;;;;;;;;;;;;14.26;nan;98461.63;4940751;29;19927;-85
2023/04/06 05:31:26;;;;;;;;;;;;;;;14.14;nan;98474.81;4940965;29;20420;-84
2023/04/06 05:34:10;;;;;;;;;;;;;;;14.33;nan;98472.03;4939419;28;19930;-85
2023/04/06 05:36:55;;;;;;;;;;;;;;;14.47;nan;98474.41;4940236;29;19921;-84
2023/04/06 05:39:38;;;;;;;;;;;;;;;14.06;nan;98475.19;4939393;29;19965;-83
2023/04/06 05:42:22;;;;;;;;;;;;;;;13.95;nan;98476.81;4938424;29;19977;-84
2023/04/06 05:45:07;;;;;;;;;;;;;;;14.18;nan;98471.75;4939204;29;19937;-84
2023/04/06 05:47:51;;;;;;;;;;;;;;;14.11;nan;98472.66;4939473;29;19922;-84
2023/04/06 05:50:34;;;;;;;;;;;;;;;14.20;nan;98472.31;4939863;29;19925;-84
2023/04/06 05:53:20;;;;;;;;;;;;;;;14.17;nan;98467.50;4940568;29;19968;-84
2023/04/06 05:56:05;;;;;;;;;;;;;;;14.11;nan;98463.94;4940239;29;19929;-84
2023/04/06 05:58:48;;;;;;;;;;;;;;;14.30;nan;98450.59;4940813;29;19921;-84
2023/04/06 06:01:33;;;;;;;;;;;;;;;14.36;nan;98455.75;4939940;29;20291;-87
2023/04/06 06:04:17;;;;;;;;;;;;;;;14.31;nan;98445.06;4936904;29;19926;-86
2023/04/06 06:07:01;;;;;;;;;;;;;;;14.14;nan;98463.47;4940744;29;19926;-85
2023/04/06 06:09:45;;;;;;;;;;;;;;;14.27;nan;98465.88;4941229;29;19921;-84
2023/04/06 06:12:29;;;;;;;;;;;;;;;14.04;nan;98468.53;4954292;29;19965;-85
2023/04/06 06:15:14;;;;;;;;;;;;;;;14.22;nan;98470.22;4942461;29;20001;-87
2023/04/06 06:17:58;;;;;;;;;;;;;;;14.31;nan;98471.47;4939550;29;19921;-91
2023/04/06 06:20:42;;;;;;;;;;;;;;;14.39;nan;98460.56;4941928;29;19962;-87
2023/04/06 06:23:26;;;;;;;;;;;;;;;14.11;nan;98475.28;4955980;29;19921;-88
2023/04/06 06:26:10;;;;;;;;;;;;;;;14.13;nan;98475.84;4950054;29;20292;-88
2023/04/06 06:28:55;;;;;;;;;;;;;;;14.25;nan;98486.41;4939232;29;20304;-90
2023/04/06 06:31:39;;;;;;;;;;;;;;;13.92;nan;98476.44;4933382;29;19926;-89
2023/04/06 06:34:23;;;;;;;;;;;;;;;13.75;nan;98473.72;4955512;29;20296;-88
2023/04/06 06:37:07;;;;;;;;;;;;;;;13.47;nan;98475.97;4940357;29;19938;-91
2023/04/06 06:39:50;;;;;;;;;;;;;;;13.53;nan;98472.41;4936219;29;19970;-87
2023/04/06 06:42:34;;;;;;;;;;;;;;;13.97;nan;98479.22;4954179;29;19922;-89
2023/04/06 06:45:19;;;;;;;;;;;;;;;13.90;nan;98489.88;4943186;29;20005;-88
2023/04/06 06:48:03;;;;;;;;;;;;;;;13.87;nan;98482.44;4938780;29;19921;-87
2023/04/06 06:50:48;;;;;;;;;;;;;;;13.80;nan;98493.09;4939927;29;19925;-88
2023/04/06 06:53:32;;;;;;;;;;;;;;;13.85;nan;98492.38;4940007;29;20395;-87
2023/04/06 06:56:16;;;;;;;;;;;;;;;13.70;nan;98487.56;4940548;29;19929;-89
2023/04/06 06:59:00;;;;;;;;;;;;;;;13.63;nan;98498.22;4952605;29;20403;-87
2023/04/06 07:01:43;;;;;;;;;;;;;;;13.56;nan;98494.91;4941229;29;20012;-89
2023/04/06 07:04:27;;;;;;;;;;;;;;;13.52;nan;98484.00;4938028;29;19925;-89
2023/04/06 07:07:12;;;;;;;;;;;;;;;13.43;nan;98486.16;4939057;29;20787;-87
2023/04/06 07:09:56;;;;;;;;;;;;;;;13.41;nan;98498.75;4940618;29;20015;-88
2023/04/06 07:12:40;;;;;;;;;;;;;;;13.21;nan;98493.78;4952910;29;19968;-87
2023/04/06 07:15:24;;;;;;;;;;;;;;;13.70;nan;98485.75;4941461;29;19923;-87
2023/04/06 07:18:07;;;;;;;;;;;;;;;13.31;nan;98508.22;4956499;29;19942;-87
2023/04/06 07:20:51;;;;;;;;;;;;;;;13.49;nan;98512.66;4937727;29;20024;-88
2023/04/06 07:23:35;;;;;;;;;;;;;;;13.20;nan;98513.25;4939553;29;19920;-87
2023/04/06 07:26:20;;;;;;;;;;;;;;;12.89;nan;98522.19;4948986;29;19961;-90
2023/04/06 07:29:08;;;;;;;;;;;;;;;13.25;nan;98523.09;4940442;29;19976;-89
2023/04/06 07:31:52;;;;;;;;;;;;;;;12.75;nan;98545.22;4938089;29;19954;-87
2023/04/06 07:34:36;;;;;;;;;;;;;;;12.84;nan;98528.13;4938472;29;19921;-88
2023/04/06 07:37:21;;;;;;;;;;;;;;;12.84;nan;98536.00;4940825;29;19920;-89
2023/04/06 07:40:08;;;;;;;;;;;;;;;12.90;nan;98543.03;4955558;29;20335;-90
2023/04/06 07:42:52;;;;;;;;;;;;;;;12.70;nan;98530.91;4943723;29;19921;-88
2023/04/06 07:45:36;;;;;;;;;;;;;;;12.47;nan;98543.94;4942643;29;19929;-88
2023/04/06 07:48:20;;;;;;;;;;;;;;;12.81;nan;98531.19;4943400;29;20001;-88
2023/04/06 07:51:06;;;;;;;;;;;;;;;12.52;nan;98523.81;4943790;29;19974;-88
2023/04/06 07:53:50;;;;;;;;;;;;;;;12.43;nan;98520.69;4942891;29;19921;-89
2023/04/06 07:56:34;;;;;;;;;;;;;;;12.73;nan;98518.31;4942963;29;20375;-90
2023/04/06 07:59:18;;;;;;;;;;;;;;;12.55;nan;98518.13;4945533;29;19921;-90
2023/04/06 08:02:02;;;;;;;;;;;;;;;12.83;nan;98529.16;4961064;29;19934;-88
2023/04/06 08:04:45;;;;;;;;;;;;;;;12.68;nan;98509.25;4928416;29;19925;-89
2023/04/06 08:07:29;;;;;;;;;;;;;;;12.65;nan;98528.13;4942380;29;20374;-89
2023/04/06 08:10:13;;;;;;;;;;;;;;;12.61;nan;98516.44;4943154;29;19946;-86
2023/04/06 08:12:58;;;;;;;;;;;;;;;12.68;nan;98529.53;4957982;29;20411;-87
2023/04/06 08:15:42;;;;;;;;;;;;;;;12.51;nan;98526.66;4942400;29;19921;-87
2023/04/06 08:18:26;;;;;;;;;;;;;;;13.27;nan;98532.41;4942353;29;20014;-87
2023/04/06 08:21:09;;;;;;;;;;;;;;;12.95;nan;98527.34;4943133;29;19989;-88
2023/04/06 08:23:53;;;;;;;;;;;;;;;13.14;nan;98524.66;4938758;29;20380;-86
2023/04/06 08:26:37;;;;;;;;;;;;;;;12.83;nan;98529.16;4935638;29;19964;-88
2023/04/06 08:29:21;;;;;;;;;;;;;;;12.77;nan;98524.75;4955645;29;19964;-86
2023/04/06 08:32:06;;;;;;;;;;;;;;;12.95;nan;98532.63;4942047;29;20420;-89
2023/04/06 08:34:55;;;;;;;;;;;;;;;13.03;nan;98538.63;4940697;29;20329;-89
2023/04/06 08:37:43;;;;;;;;;;;;;;;12.88;nan;98534.53;4939267;29;20421;-88
2023/04/06 08:40:27;;;;;;;;;;;;;;;12.81;nan;98533.84;4941512;29;20455;-89
2023/04/06 08:43:14;;;;;;;;;;;;;;;12.79;nan;98526.13;4939740;29;19926;-86
2023/04/06 08:45:59;;;;;;;;;;;;;;;12.79;nan;98538.50;4941852;29;19956;-89
2023/04/06 08:48:43;;;;;;;;;;;;;;;12.60;nan;98541.16;4941914;29;20516;-85
2023/04/06 08:51:28;;;;;;;;;;;;;;;12.51;nan;98537.19;4941516;29;20395;-87
2023/04/06 08:54:12;;;;;;;;;;;;;;;12.67;nan;98559.50;4955795;29;19928;-87
2023/04/06 08:56:57;;;;;;;;;;;;;;;12.75;nan;98548.69;4941101;29;19977;-86
2023/04/06 08:59:41;;;;;;;;;;;;;;;12.48;nan;98569.22;4940355;29;19930;-88
2023/04/06 09:02:26;;;;;;;;;;;;;;;12.60;nan;98549.06;4942414;29;20062;-89
2023/04/06 09:05:10;;;;;;;;;;;;;;;12.55;nan;98562.88;4941065;29;19925;-88
2023/04/06 09:07:54;;;;;;;;;;;;;;;12.45;nan;98570.47;4941671;29;19922;-86
2023/04/06 09:10:41;;;;;;;;;;;;;;;12.13;nan;98576.63;4954461;28;19934;-86
2023/04/06 09:13:27;;;;;;;;;;;;;;;12.45;nan;98569.66;4953150;29;19921;-86
2023/04/06 09:16:11;;;;;;;;;;;;;;;12.62;nan;98569.88;4953394;29;20360;-88
2023/04/06 09:19:03;;;;;;;;;;;;;;;12.38;nan;98585.53;4941118;29;19922;-87
2023/04/06 09:21:48;;;;;;;;;;;;;;;12.47;nan;98575.50;4952668;29;19925;-86
2023/04/06 09:24:45;;;;;;;;;;;;;;;12.78;nan;98573.78;4952651;29;19925;-85
2023/04/06 09:27:30;;;;;;;;;;;;;;;13.25;nan;98574.00;4935705;29;19973;-86
2023/04/06 09:30:16;;;;;;;;;;;;;;;13.45;nan;98583.50;4934237;29;19925;-85
2023/04/06 09:33:00;;;;;;;;;;;;;;;13.27;nan;98579.84;4939123;29;19921;-84
2023/04/06 09:35:49;;;;;;;;;;;;;;;13.04;nan;98579.75;4950500;29;20280;-86
2023/04/06 09:38:36;;;;;;;;;;;;;;;13.04;nan;98587.66;4940642;29;19980;-87
2023/04/06 09:41:23;;;;;;;;;;;;;;;13.20;nan;98576.50;4949678;29;19921;-89
2023/04/06 09:44:08;;;;;;;;;;;;;;;12.50;nan;98583.78;4938906;29;19961;-86
2023/04/06 09:46:53;;;;;;;;;;;;;;;12.80;nan;98584.91;4938662;29;19926;-85
2023/04/06 09:49:37;;;;;;;;;;;;;;;12.88;nan;98587.22;4939797;29;19921;-87
2023/04/06 09:53:01;;;;;;;;;;;;;;;13.14;nan;98583.47;4941229;29;19929;-86
2023/04/06 09:55:58;;;;;;;;;;;;;;;12.92;nan;98598.91;4948198;29;19929;-87
2023/04/06 10:02:23;;;;;;;;;;;;;;;13.33;nan;98588.69;4953866;29;20006;-85
2023/04/06 10:05:19;;;;;;;;;;;;;;;13.07;nan;98585.38;4933759;29;19978;-84
2023/04/06 10:08:30;;;;;;;;;;;;;;;13.24;nan;98582.94;4952688;29;19921;-86
2023/04/06 10:11:19;;;;;;;;;;;;;;;13.33;nan;98586.06;4951234;29;19954;-89
2023/04/06 10:14:07;;;;;;;;;;;;;;;13.23;nan;98586.59;4936459;29;19921;-88
2023/04/06 10:17:26;;;;;;;;;;;;;;;13.15;nan;98589.53;4934653;29;19921;-87
2023/04/06 10:20:29;;;;;;;;;;;;;;;12.98;nan;98621.78;4952553;29;19922;-85
2023/04/06 10:23:39;;;;;;;;;;;;;;;12.88;nan;98589.84;4932227;29;19917;-86
2023/04/06 10:30:32;;;;;;;;;;;;;;;12.69;nan;98592.50;4929115;29;20414;-88
2023/04/06 10:33:18;;;;;;;;;;;;;;;13.38;nan;98590.66;4934716;29;19942;-85
2023/04/06 10:36:27;;;;;;;;;;;;;;;13.24;nan;98604.00;4918228;29;19921;-88
2023/04/06 10:39:11;;;;;;;;;;;;;;;13.39;nan;98600.19;4932939;29;19966;-88
2023/04/06 10:41:55;;;;;;;;;;;;;;;13.09;nan;98593.06;4920500;29;19925;-87
2023/04/06 10:44:42;;;;;;;;;;;;;;;13.12;nan;98593.41;4932566;29;20412;-87
2023/04/06 10:47:26;;;;;;;;;;;;;;;13.34;nan;98600.03;4933117;29;19922;-89
2023/04/06 10:50:14;;;;;;;;;;;;;;;13.27;nan;98594.88;4920762;29;19970;-87
2023/04/06 10:52:59;;;;;;;;;;;;;;;13.15;nan;98626.41;4920699;29;19974;-85
2023/04/06 10:55:44;;;;;;;;;;;;;;;13.35;nan;98599.00;4940730;29;19937;-87
2023/04/06 10:58:30;;;;;;;;;;;;;;;13.29;nan;98609.41;4940267;29;19921;-87
2023/04/06 11:01:18;;;;;;;;;;;;;;;13.39;nan;98608.88;4940103;29;19929;-88
2023/04/06 11:04:03;;;;;;;;;;;;;;;13.57;nan;98623.06;4940434;29;19965;-85
2023/04/06 11:06:48;;;;;;;;;;;;;;;13.10;nan;98626.28;4955182;29;19942;-86
2023/04/06 11:09:32;;;;;;;;;;;;;;;13.69;nan;98604.66;4940856;29;19921;-87
2023/04/06 11:12:22;;;;;;;;;;;;;;;13.42;nan;98629.53;4940866;29;19941;-89
2023/04/06 11:15:06;;;;;;;;;;;;;;;13.29;nan;98621.81;4952652;29;19921;-89
2023/04/06 11:17:51;;;;;;;;;;;;;;;13.63;nan;98632.72;4940867;29;19922;-86
2023/04/06 11:20:34;;;;;;;;;;;;;;;13.26;nan;98617.78;4934620;29;19930;-87
2023/04/06 11:23:27;;;;;;;;;;;;;;;13.27;nan;98616.75;4940292;29;20002;-87
2023/04/06 11:26:12;;;;;;;;;;;;;;;13.34;nan;98624.56;4939712;29;20021;-86
2023/04/06 11:28:56;;;;;;;;;;;;;;;13.50;nan;98617.09;4954251;29;19925;-86
2023/04/06 11:38:56;;;;;;;;;;;;;;;14.07;nan;98639.63;4948559;29;20288;-89
2023/04/06 11:41:40;;;;;;;;;;;;;;;13.74;nan;98644.34;4944469;29;20056;-88
2023/04/06 11:44:34;;;;;;;;;;;;;;;13.60;nan;98671.94;4957943;29;19972;-89
2023/04/06 11:47:33;;;;;;;;;;;;;;;14.12;nan;98653.72;4944505;29;20328;-87
2023/04/06 11:50:39;;;;;;;;;;;;;;;13.70;nan;98646.63;4944468;29;19926;-88
2023/04/06 11:53:26;;;;;;;;;;;;;;;14.00;nan;98653.69;4958204;29;20435;-87
2023/04/06 11:56:22;;;;;;;;;;;;;;;14.25;nan;98658.00;4944742;29;19921;-88
2023/04/06 11:59:06;;;;;;;;;;;;;;;13.89;nan;98675.59;4958607;29;19965;-87
2023/04/06 12:01:53;;;;;;;;;;;;;;;13.89;nan;98657.13;4959325;29;19965;-87
2023/04/06 12:04:37;;;;;;;;;;;;;;;13.73;nan;98668.31;4944137;29;20017;-87
2023/04/06 12:07:21;;;;;;;;;;;;;;;13.46;nan;98681.81;4958122;29;19925;-86
2023/04/06 12:10:05;;;;;;;;;;;;;;;13.56;nan;98680.31;4942842;29;19925;-88
2023/04/06 12:12:49;;;;;;;;;;;;;;;13.31;nan;98698.00;4943798;29;19938;-86
2023/04/06 12:22:28;;;;;;;;;;;;;;;13.72;nan;98675.41;4958358;29;20288;-89
2023/04/06 12:25:13;;;;;;;;;;;;;;;14.23;nan;98685.66;4952690;29;19921;-89
2023/04/06 12:27:59;;;;;;;;;;;;;;;13.93;nan;98678.56;4944040;29;19922;-87
2023/04/06 12:30:46;;;;;;;;;;;;;;;14.31;nan;98682.66;4939288;29;19925;-88
2023/04/06 12:33:30;;;;;;;;;;;;;;;14.16;nan;98692.88;4935224;29;19921;-87
2023/04/06 12:36:15;;;;;;;;;;;;;;;14.40;nan;98680.50;4943238;29;20391;-89
2023/04/06 12:39:00;;;;;;;;;;;;;;;14.54;nan;98689.00;4942738;29;19930;-86
2023/04/06 12:41:44;;;;;;;;;;;;;;;13.95;nan;98709.00;4943868;29;20029;-87
2023/04/06 12:45:26;;;;;;;;;;;;;;;;;;;;;
2023/04/06 12:47:59;;;;;;;;;;;;;;;13.33;nan;98707.31;4953130;29;19922;-88
2023/04/06 12:50:43;;;;;;;;;;;;;;;13.62;nan;98698.88;4954692;29;20281;-88
2023/04/06 12:53:51;;;;;;;;;;;;;;;13.68;nan;98714.63;4941224;29;19925;-85
2023/04/06 12:57:01;;;;;;;;;;;;;;;13.86;nan;98707.72;4941470;29;20066;-89
2023/04/06 12:59:46;;;;;;;;;;;;;;;13.56;nan;98716.41;4953449;29;19922;-86
2023/04/06 13:02:30;;;;;;;;;;;;;;;13.61;nan;98713.09;4938316;29;19998;-85
2023/04/06 13:05:18;;;;;;;;;;;;;;;14.08;nan;98715.91;4938953;29;19925;-85
2023/04/06 13:08:02;;;;;;;;;;;;;;;14.03;nan;98725.53;4953472;29;21628;-84
2023/04/06 13:10:47;;;;;;;;;;;;;;;13.78;nan;98740.47;4940007;29;20144;-84
2023/04/06 13:13:31;;;;;;;;;;;;;;;13.45;nan;98738.22;4940749;29;19969;-85
2023/04/06 13:16:16;;;;;;;;;;;;;;;13.83;nan;98724.78;4939567;29;19942;-84
2023/04/06 13:19:01;;;;;;;;;;;;;;;13.86;nan;98728.81;4933769;29;20433;-86
2023/04/06 13:21:45;;;;;;;;;;;;;;;13.45;nan;98757.50;4939523;29;20316;-85
2023/04/06 13:24:29;;;;;;;;;;;;;;;13.73;nan;98727.13;4937619;29;19921;-87
2023/04/06 13:27:13;;;;;;;;;;;;;;;13.62;nan;98733.19;4954263;29;19925;-87
2023/04/06 13:29:57;;;;;;;;;;;;;;;13.91;nan;98747.41;4937582;29;19977;-88
2023/04/06 13:32:41;;;;;;;;;;;;;;;13.77;nan;98740.69;4940592;29;19929;-85
2023/04/06 13:35:24;;;;;;;;;;;;;;;14.10;nan;98742.09;4950514;29;19942;-85
2023/04/06 13:38:09;;;;;;;;;;;;;;;13.68;nan;98745.47;4937690;29;19926;-85
2023/04/06 13:40:53;;;;;;;;;;;;;;;13.49;nan;98739.41;4951442;29;19938;-85
2023/04/06 13:43:37;;;;;;;;;;;;;;;14.02;nan;98735.28;4947635;29;20018;-84
2023/04/06 13:46:23;;;;;;;;;;;;;;;14.30;nan;98733.84;4949835;29;20018;-86
2023/04/06 13:49:07;;;;;;;;;;;;;;;13.78;nan;98744.94;4938778;29;19921;-86
2023/04/06 13:51:51;;;;;;;;;;;;;;;13.79;nan;98763.19;4937552;29;19930;-85
2023/04/06 13:54:35;;;;;;;;;;;;;;;13.98;nan;98768.44;4933094;29;20383;-85
2023/04/06 13:57:19;;;;;;;;;;;;;;;13.49;nan;98760.50;4931296;29;19922;-87
2023/04/06 14:00:04;;;;;;;;;;;;;;;13.30;nan;98781.56;4954571;29;19968;-85
2023/04/06 14:02:47;;;;;;;;;;;;;;;13.73;nan;98764.06;4929940;29;19964;-87
2023/04/06 14:05:32;;;;;;;;;;;;;;;13.59;nan;98762.63;4938277;29;19974;-85
2023/04/06 14:08:16;;;;;;;;;;;;;;;13.80;nan;98772.72;4936399;29;20400;-86
2023/04/06 14:11:00;;;;;;;;;;;;;;;13.52;nan;98774.03;4937044;29;19926;-86
2023/04/06 14:13:44;;;;;;;;;;;;;;;13.55;nan;98763.03;4937623;29;19923;-86
2023/04/06 14:16:28;;;;;;;;;;;;;;;13.84;nan;98760.69;4937860;29;19965;-85
2023/04/06 14:19:15;;;;;;;;;;;;;;;14.04;nan;98764.91;4936793;29;19960;-86
2023/04/06 14:21:59;;;;;;;;;;;;;;;14.00;nan;98758.47;4939404;29;19962;-84
2023/04/06 14:24:43;;;;;;;;;;;;;;;14.39;nan;98752.81;4939685;29;19966;-84
2023/04/06 14:27:27;;;;;;;;;;;;;;;14.49;nan;98754.91;4938271;29;19962;-85
2023/04/06 14:30:11;;;;;;;;;;;;;;;14.50;nan;98759.16;4939314;29;20024;-86
2023/04/06 14:32:59;;;;;;;;;;;;;;;14.80;nan;98763.59;4939472;29;19922;-85
2023/04/06 14:35:43;;;;;;;;;;;;;;;14.87;nan;98740.50;4953199;29;19922;-85
2023/04/06 14:38:27;;;;;;;;;;;;;;;14.81;nan;98758.06;4939906;29;20420;-84
2023/04/06 14:41:15;;;;;;;;;;;;;;;15.01;nan;98754.28;4939382;29;20411;-88
2023/04/06 14:43:59;;;;;;;;;;;;;;;14.29;nan;98753.38;4939074;29;20334;-84
2023/04/06 14:46:47;;;;;;;;;;;;;;;14.89;nan;98772.78;4939577;29;19937;-85
2023/04/06 14:49:31;;;;;;;;;;;;;;;14.59;nan;98802.72;4953842;29;20400;-84
2023/04/06 14:52:15;;;;;;;;;;;;;;;14.24;nan;98796.28;4937849;29;20387;-85
2023/04/06 14:54:59;;;;;;;;;;;;;;;14.15;nan;98776.53;4939612;29;20284;-85
2023/04/06 14:57:43;;;;;;;;;;;;;;;14.61;nan;98765.50;4939013;29;19986;-86
2023/04/06 15:00:27;;;;;;;;;;;;;;;14.76;nan;98780.94;4936693;29;20330;-84
2023/04/06 15:03:11;;;;;;;;;;;;;;;14.49;nan;98774.22;4953572;29;19933;-85
2023/04/06 15:05:55;;;;;;;;;;;;;;;14.56;nan;98801.31;4952138;29;19961;-86